Cheyenne, Wyoming
Current Conditions -  °F | °C
As of 3:53 AM on Friday 31 Oct 2014 (Local Time) from KCYS Reporting Station
Clear Clear  
Wind Chill: 24°   Ceiling: Unl
Heat Index: 33°   Visibility: 10mi
Dew Point: 27°   Wind: 13mph
Humidity: 78%   Direction: 170°S
Pressure: 30.36"   Gusts: NA
Location:  41.13°N, 104.81°W
Report Text: KCYS 310953Z AUTO 17011KT 10SM CLR 01/M03 A3036 RMK AO2 SLP257 T00061028
Loading
Personal Weather Stations






























Interactive Weather Map
Tropical Storm Tracking
New forecast layout! Learn more

10-Day Weather Forecast

Advertisements
Track Severe Weather on mobile